createdAt,value
2023-05-14T00:02:21.108Z,101129.56
2023-05-14T00:04:47.708Z,101123.41
2023-05-14T00:07:17.319Z,101118.25
2023-05-14T00:09:43.905Z,101126.03
2023-05-14T00:12:10.487Z,101112.25
2023-05-14T00:14:37.082Z,101119.22
2023-05-14T00:17:03.711Z,101120.91
2023-05-14T00:19:30.370Z,101121.59
2023-05-14T00:21:56.926Z,101119.94
2023-05-14T00:24:23.744Z,101127.19
2023-05-14T00:26:50.359Z,101114.16
2023-05-14T00:29:17.024Z,101113.78
2023-05-14T00:31:43.750Z,101119.03
2023-05-14T00:34:12.714Z,101118.00
2023-05-14T00:36:39.317Z,101120.28
2023-05-14T00:39:05.985Z,101118.34
2023-05-14T00:41:33.086Z,101117.78
2023-05-14T00:43:59.723Z,101121.69
2023-05-14T00:46:27.660Z,101117.84
2023-05-14T00:48:54.301Z,101114.59
2023-05-14T00:51:21.094Z,101118.16
2023-05-14T00:53:48.287Z,101117.97
2023-05-14T00:56:15.962Z,101104.38
2023-05-14T00:58:42.592Z,101113.44
2023-05-14T01:01:09.358Z,101109.72
2023-05-14T01:03:36.164Z,101114.81
2023-05-14T01:06:18.156Z,101107.56
2023-05-14T01:08:59.618Z,101112.13
2023-05-14T01:11:29.594Z,101110.47
2023-05-14T01:14:07.515Z,101107.50
2023-05-14T01:16:35.175Z,101110.38
2023-05-14T01:19:06.791Z,101103.28
2023-05-14T01:21:40.177Z,101109.56
2023-05-14T01:24:07.672Z,101108.09
2023-05-14T01:26:34.994Z,101116.94
2023-05-14T01:29:22.009Z,101110.59
2023-05-14T01:31:57.744Z,101107.00
2023-05-14T01:34:26.292Z,101106.97
2023-05-14T01:36:53.504Z,101104.19
2023-05-14T01:39:20.656Z,101099.09
2023-05-14T01:41:48.739Z,101104.69
2023-05-14T01:44:15.528Z,101110.28
2023-05-14T01:46:42.156Z,101109.19
2023-05-14T01:49:11.825Z,101098.00
2023-05-14T01:51:39.081Z,101102.69
2023-05-14T01:54:05.900Z,101102.44
2023-05-14T01:56:32.499Z,101103.09
2023-05-14T01:58:59.102Z,101102.75
2023-05-14T02:01:26.285Z,101111.34
2023-05-14T02:03:57.152Z,101104.63
2023-05-14T02:06:23.905Z,101107.91
2023-05-14T02:08:50.666Z,101110.44
2023-05-14T02:11:17.448Z,101112.19
2023-05-14T02:13:44.178Z,101097.63
2023-05-14T02:16:10.941Z,101100.75
2023-05-14T02:18:43.678Z,101098.78
2023-05-14T02:21:10.681Z,101094.41
2023-05-14T02:23:41.552Z,101093.91
2023-05-14T02:26:09.804Z,101090.47
2023-05-14T02:28:36.478Z,101089.44
2023-05-14T02:31:04.080Z,101093.06
2023-05-14T02:33:30.850Z,101086.97
2023-05-14T02:35:57.547Z,101100.00
2023-05-14T02:38:24.161Z,101105.38
2023-05-14T02:40:50.877Z,101089.84
2023-05-14T02:43:17.421Z,101099.38
2023-05-14T02:45:45.009Z,101085.75
2023-05-14T02:48:14.684Z,101097.53
2023-05-14T02:50:41.646Z,101091.47
2023-05-14T02:53:08.766Z,101090.28
2023-05-14T02:55:35.704Z,101095.31
2023-05-14T02:58:02.397Z,101088.72
2023-05-14T03:00:30.051Z,101091.38
2023-05-14T03:05:40.380Z,101091.06
2023-05-14T03:08:06.908Z,101084.00
2023-05-14T03:10:33.480Z,101087.97
2023-05-14T03:13:00.129Z,101090.19
2023-05-14T03:15:26.708Z,101088.47
2023-05-14T03:17:53.351Z,101089.94
2023-05-14T03:20:20.564Z,101080.31
2023-05-14T03:22:47.196Z,101083.28
2023-05-14T03:25:14.075Z,101084.13
2023-05-14T03:27:42.836Z,101085.94
2023-05-14T03:30:09.701Z,101083.28
2023-05-14T03:32:37.565Z,101094.06
2023-05-14T03:35:04.476Z,101083.47
2023-05-14T03:37:35.401Z,101085.75
2023-05-14T03:40:01.996Z,101075.19
2023-05-14T03:42:28.662Z,101084.22
2023-05-14T03:44:55.282Z,101078.53
2023-05-14T03:47:21.999Z,101078.69
2023-05-14T03:49:48.867Z,101071.63
2023-05-14T03:52:16.851Z,101078.47
2023-05-14T03:54:44.580Z,101065.38
2023-05-14T03:57:13.435Z,101076.25
2023-05-14T03:59:40.762Z,101075.41
2023-05-14T04:02:07.466Z,101069.09
2023-05-14T04:04:41.612Z,101070.56
2023-05-14T04:07:08.932Z,101063.03
2023-05-14T04:09:35.630Z,101072.03
2023-05-14T04:12:05.530Z,101063.47
2023-05-14T04:14:33.714Z,101062.22
2023-05-14T04:17:03.823Z,101066.28
2023-05-14T04:19:30.457Z,101064.59
2023-05-14T04:21:59.553Z,101067.00
2023-05-14T04:24:26.232Z,101062.81
2023-05-14T04:26:52.768Z,101066.06
2023-05-14T04:29:19.381Z,101067.78
2023-05-14T04:31:46.521Z,101064.47
2023-05-14T04:34:13.192Z,101057.25
2023-05-14T04:36:40.265Z,101062.09
2023-05-14T04:39:10.031Z,101057.97
2023-05-14T04:41:36.833Z,101054.56
2023-05-14T04:44:04.254Z,101048.44
2023-05-14T04:46:31.191Z,101057.97
2023-05-14T04:48:57.812Z,101045.41
2023-05-14T04:51:31.641Z,101054.03
2023-05-14T04:53:58.412Z,101063.94
2023-05-14T04:56:25.934Z,101049.22
2023-05-14T04:58:52.525Z,101053.47
2023-05-14T05:01:19.143Z,101053.47
2023-05-14T05:03:45.952Z,101047.22
2023-05-14T05:06:14.870Z,101056.25
2023-05-14T05:08:41.629Z,101053.28
2023-05-14T05:11:08.181Z,101054.31
2023-05-14T05:13:36.900Z,101049.16
2023-05-14T05:16:03.730Z,101047.06
2023-05-14T05:18:30.330Z,101049.63
2023-05-14T05:20:57.769Z,101055.78
2023-05-14T05:23:24.355Z,101052.31
2023-05-14T05:25:58.493Z,101049.84
2023-05-14T05:28:28.131Z,101053.00
2023-05-14T05:30:54.695Z,101057.59
2023-05-14T05:33:21.365Z,101056.38
2023-05-14T05:35:48.887Z,101053.25
2023-05-14T05:38:18.371Z,101049.03
2023-05-14T05:40:45.099Z,101046.22
2023-05-14T05:43:13.914Z,101052.22
2023-05-14T05:45:40.942Z,101051.13
2023-05-14T05:48:07.817Z,101041.94
2023-05-14T05:50:34.536Z,101040.94
2023-05-14T05:53:01.171Z,101048.50
2023-05-14T05:55:30.549Z,101039.09
2023-05-14T05:57:57.267Z,101038.47
2023-05-14T06:00:24.527Z,101048.78
2023-05-14T06:02:52.888Z,101044.78
2023-05-14T06:05:19.634Z,101047.34
2023-05-14T06:07:46.302Z,101033.72
2023-05-14T06:10:13.790Z,101051.03
2023-05-14T06:12:40.583Z,101044.56
2023-05-14T06:15:10.170Z,101043.44
2023-05-14T06:17:36.792Z,101056.06
2023-05-14T06:20:05.638Z,101046.94
2023-05-14T06:22:32.293Z,101050.59
2023-05-14T06:25:02.027Z,101050.31
2023-05-14T06:27:30.999Z,101048.00
2023-05-14T06:29:57.613Z,101050.94
2023-05-14T06:32:24.375Z,101050.16
2023-05-14T06:34:51.053Z,101052.75
2023-05-14T06:37:20.242Z,101048.72
2023-05-14T06:39:50.206Z,101038.22
2023-05-14T06:42:17.180Z,101035.84
2023-05-14T06:44:44.342Z,101028.41
2023-05-14T06:47:10.982Z,101033.25
2023-05-14T06:49:37.700Z,101034.34
2023-05-14T06:52:04.775Z,101029.75
2023-05-14T06:54:33.658Z,101029.75
2023-05-14T06:57:00.391Z,101024.69
2023-05-14T06:59:26.926Z,101018.84
2023-05-14T07:01:56.111Z,101013.44
2023-05-14T07:04:22.887Z,101017.13
2023-05-14T07:06:49.632Z,101015.69
2023-05-14T07:09:16.636Z,101008.88
2023-05-14T07:11:43.507Z,101017.13
2023-05-14T07:14:10.035Z,101013.88
2023-05-14T07:16:36.995Z,101013.34
2023-05-14T07:19:03.670Z,101015.75
2023-05-14T07:21:30.391Z,101001.31
2023-05-14T07:23:56.943Z,101006.25
2023-05-14T07:26:24.590Z,101010.50
2023-05-14T07:28:51.231Z,100998.06
2023-05-14T07:31:24.011Z,100997.59
2023-05-14T07:33:53.466Z,100990.19
2023-05-14T07:36:20.047Z,101000.16
2023-05-14T07:38:46.695Z,100993.28
2023-05-14T07:41:13.671Z,100986.81
2023-05-14T07:43:40.622Z,100983.19
2023-05-14T07:46:07.175Z,100978.63
2023-05-14T07:48:33.812Z,100977.47
2023-05-14T07:51:00.471Z,100977.69
2023-05-14T07:53:27.020Z,100970.22
2023-05-14T07:55:54.610Z,100970.56
2023-05-14T07:58:21.245Z,100965.38
2023-05-14T08:00:47.843Z,100962.38
2023-05-14T08:03:15.107Z,100967.00
2023-05-14T08:05:41.815Z,100961.50
2023-05-14T08:08:12.505Z,100966.00
2023-05-14T08:10:41.575Z,100967.63
2023-05-14T08:13:08.147Z,100962.31
2023-05-14T08:15:34.829Z,100958.41
2023-05-14T08:18:03.797Z,100955.41
2023-05-14T08:20:31.165Z,100954.44
2023-05-14T08:23:01.517Z,100958.19
2023-05-14T08:25:28.173Z,100955.53
2023-05-14T08:27:54.861Z,100961.53
2023-05-14T08:30:22.764Z,100963.78
2023-05-14T08:32:49.657Z,100958.84
2023-05-14T08:35:16.812Z,100951.63
2023-05-14T08:37:43.638Z,100946.84
2023-05-14T08:40:10.681Z,100947.13
2023-05-14T08:42:40.540Z,100943.97
2023-05-14T08:45:11.988Z,100932.63
2023-05-14T08:47:38.791Z,100935.44
2023-05-14T08:50:06.536Z,100928.84
2023-05-14T08:52:33.683Z,100928.91
2023-05-14T08:55:04.844Z,100928.44
2023-05-14T08:57:32.477Z,100928.63
2023-05-14T08:59:59.051Z,100921.41
2023-05-14T09:02:28.738Z,100920.84
2023-05-14T09:04:56.663Z,100917.63
2023-05-14T09:07:23.916Z,100916.28
2023-05-14T09:09:51.390Z,100918.88
2023-05-14T09:12:18.131Z,100916.09
2023-05-14T09:14:45.377Z,100914.41
2023-05-14T09:17:12.722Z,100916.69
2023-05-14T09:19:40.475Z,100920.59
2023-05-14T09:22:12.036Z,100922.84
2023-05-14T09:24:39.061Z,100918.47
2023-05-14T09:27:06.616Z,100918.91
2023-05-14T09:29:33.942Z,100912.53
2023-05-14T09:32:04.834Z,100918.28
2023-05-14T09:34:32.586Z,100912.66
2023-05-14T09:37:06.511Z,100905.44
2023-05-14T09:39:33.752Z,100905.31
2023-05-14T09:42:00.566Z,100900.34
2023-05-14T09:44:27.497Z,100897.22
2023-05-14T09:46:56.976Z,100889.28
2023-05-14T09:49:25.503Z,100888.16
2023-05-14T09:51:52.064Z,100882.53
2023-05-14T09:54:18.733Z,100877.72
2023-05-14T09:56:47.506Z,100876.50
2023-05-14T09:59:14.281Z,100870.88
2023-05-14T10:01:42.477Z,100864.69
2023-05-14T10:04:09.988Z,100854.78
2023-05-14T10:06:37.365Z,100862.97
2023-05-14T10:09:05.742Z,100851.09
2023-05-14T10:11:36.763Z,100842.78
2023-05-14T10:14:07.506Z,100842.97
2023-05-14T10:16:35.492Z,100839.84
2023-05-14T10:19:06.517Z,100842.84
2023-05-14T10:21:35.044Z,100837.56
2023-05-14T10:24:02.133Z,100831.06
2023-05-14T10:26:28.888Z,100834.81
2023-05-14T10:28:56.255Z,100835.56
2023-05-14T10:31:23.455Z,100832.06
2023-05-14T10:33:50.879Z,100821.22
2023-05-14T10:36:18.432Z,100823.19
2023-05-14T10:38:44.986Z,100821.69
2023-05-14T10:41:25.996Z,100818.50
2023-05-14T10:43:52.575Z,100826.00
2023-05-14T10:46:19.154Z,100823.56
2023-05-14T10:48:47.264Z,100826.13
2023-05-14T10:51:16.847Z,100815.25
2023-05-14T10:53:44.007Z,100805.72
2023-05-14T10:56:14.464Z,100805.22
2023-05-14T10:58:44.843Z,100803.00
2023-05-14T11:01:12.445Z,100802.06
2023-05-14T11:03:46.361Z,100796.41
2023-05-14T11:06:13.938Z,100794.00
2023-05-14T11:08:41.022Z,100786.53
2023-05-14T11:11:08.988Z,100788.19
2023-05-14T11:13:35.586Z,100777.81
2023-05-14T11:16:21.110Z,100774.44
2023-05-14T11:18:53.517Z,100781.38
2023-05-14T11:21:20.272Z,100767.09
2023-05-14T11:23:46.928Z,100773.19
2023-05-14T11:26:13.702Z,100764.81
2023-05-14T11:28:40.464Z,100745.59
2023-05-14T11:31:07.154Z,100753.81
2023-05-14T11:33:33.810Z,100751.72
2023-05-14T11:36:00.408Z,100757.75
2023-05-14T11:38:26.965Z,100750.94
2023-05-14T11:41:13.982Z,100738.50
2023-05-14T11:43:41.083Z,100742.84
2023-05-14T11:46:07.697Z,100748.91
2023-05-14T11:48:34.870Z,100739.97
2023-05-14T11:51:01.400Z,100744.47
2023-05-14T11:53:29.411Z,100740.69
2023-05-14T11:55:57.901Z,100736.97
2023-05-14T11:58:25.110Z,100739.94
2023-05-14T12:00:51.914Z,100740.84
2023-05-14T12:03:27.679Z,100726.13
2023-05-14T12:05:58.405Z,100717.09
2023-05-14T12:08:31.739Z,100726.22
2023-05-14T12:10:59.157Z,100720.00
2023-05-14T12:13:27.408Z,100720.06
2023-05-14T12:15:55.481Z,100715.72
2023-05-14T12:18:25.929Z,100729.00
2023-05-14T12:20:52.827Z,100719.84
2023-05-14T12:23:26.911Z,100723.41
2023-05-14T12:25:53.542Z,100714.75
2023-05-14T12:28:22.923Z,100715.53
2023-05-14T12:30:56.590Z,100713.75
2023-05-14T12:33:26.646Z,100727.13
2023-05-14T12:36:10.019Z,100723.00
2023-05-14T12:38:41.365Z,100721.28
2023-05-14T12:41:07.948Z,100724.03
2023-05-14T12:43:34.497Z,100724.28
2023-05-14T12:46:01.078Z,100722.47
2023-05-14T12:48:27.917Z,100723.59
2023-05-14T12:50:54.592Z,100722.22
2023-05-14T12:53:21.304Z,100717.56
2023-05-14T12:55:50.982Z,100718.69
2023-05-14T12:58:17.620Z,100724.16
2023-05-14T13:00:44.304Z,100713.84
2023-05-14T13:03:14.330Z,100709.84
2023-05-14T13:05:40.988Z,100715.97
2023-05-14T13:08:07.643Z,100706.94
2023-05-14T13:10:34.244Z,100700.59
2023-05-14T13:13:02.123Z,100707.00
2023-05-14T13:15:35.997Z,100700.13
2023-05-14T13:18:02.683Z,100694.94
2023-05-14T13:20:31.052Z,100697.19
2023-05-14T13:23:00.754Z,100692.56
2023-05-14T13:25:27.744Z,100687.81
2023-05-14T13:27:54.365Z,100686.16
2023-05-14T13:30:21.068Z,100688.13
2023-05-14T13:32:47.753Z,100687.09
2023-05-14T13:35:14.490Z,100679.00
2023-05-14T13:37:43.361Z,100683.38
2023-05-14T13:40:10.391Z,100674.63
2023-05-14T13:42:37.527Z,100678.78
2023-05-14T13:45:04.243Z,100673.69
2023-05-14T13:47:31.300Z,100665.66
2023-05-14T13:49:58.324Z,100672.25
2023-05-14T13:52:25.033Z,100662.53
2023-05-14T13:54:51.590Z,100658.47
2023-05-14T13:57:18.195Z,100659.19
2023-05-14T13:59:46.071Z,100658.66
2023-05-14T14:02:15.841Z,100656.31
2023-05-14T14:04:42.475Z,100646.16
2023-05-14T14:07:09.193Z,100648.13
2023-05-14T14:09:36.957Z,100640.50
2023-05-14T14:12:04.279Z,100642.16
2023-05-14T14:14:31.187Z,100633.97
2023-05-14T14:17:00.135Z,100636.28
2023-05-14T14:19:27.223Z,100623.59
2023-05-14T14:21:53.893Z,100630.75
2023-05-14T14:24:20.587Z,100624.63
2023-05-14T14:26:47.199Z,100622.22
2023-05-14T14:29:13.757Z,100618.41
2023-05-14T14:31:46.496Z,100618.56
2023-05-14T14:34:13.095Z,100619.41
2023-05-14T14:36:39.624Z,100610.88
2023-05-14T14:39:06.241Z,100615.94
2023-05-14T14:41:32.855Z,100617.38
2023-05-14T14:44:03.086Z,100611.44
2023-05-14T14:46:33.218Z,100611.44
2023-05-14T14:49:00.243Z,100603.09
2023-05-14T14:51:27.238Z,100607.06
2023-05-14T14:53:53.928Z,100596.28
2023-05-14T14:56:21.074Z,100595.47
2023-05-14T14:58:47.729Z,100596.88
2023-05-14T15:01:14.405Z,100590.28
2023-05-14T15:03:41.191Z,100591.75
2023-05-14T15:06:07.929Z,100586.91
2023-05-14T15:08:37.830Z,100583.16
2023-05-14T15:11:06.250Z,100584.25
2023-05-14T15:13:32.778Z,100584.03
2023-05-14T15:16:02.514Z,100577.41
2023-05-14T15:18:29.080Z,100578.97
2023-05-14T15:20:55.870Z,100570.03
2023-05-14T15:23:22.490Z,100564.97
2023-05-14T15:25:49.972Z,100565.00
2023-05-14T15:28:16.722Z,100567.00
2023-05-14T15:30:43.424Z,100566.44
2023-05-14T15:33:10.453Z,100560.16
2023-05-14T15:35:37.083Z,100558.22
2023-05-14T15:38:03.646Z,100569.94
2023-05-14T15:40:30.416Z,100559.50
2023-05-14T15:42:56.997Z,100559.41
2023-05-14T15:45:23.626Z,100547.06
2023-05-14T15:47:50.198Z,100552.28
2023-05-14T15:50:16.829Z,100551.19
2023-05-14T15:52:43.464Z,100546.13
2023-05-14T15:55:10.335Z,100539.63
2023-05-14T15:57:39.903Z,100546.94
2023-05-14T16:00:11.320Z,100543.22
2023-05-14T16:02:39.218Z,100555.53
2023-05-14T16:05:06.844Z,100551.78
2023-05-14T16:07:33.550Z,100542.13
2023-05-14T16:10:00.135Z,100542.53
2023-05-14T16:12:26.766Z,100538.84
2023-05-14T16:14:54.041Z,100535.97
2023-05-14T16:17:20.868Z,100542.00
2023-05-14T16:19:49.457Z,100538.63
2023-05-14T16:22:16.250Z,100536.19
2023-05-14T16:24:45.381Z,100535.06
2023-05-14T16:27:12.069Z,100527.47
2023-05-14T16:29:41.531Z,100538.31
2023-05-14T16:32:08.193Z,100536.09
2023-05-14T16:34:34.860Z,100534.53
2023-05-14T16:37:01.605Z,100540.53
2023-05-14T16:39:28.286Z,100535.69
2023-05-14T16:41:54.925Z,100534.09
2023-05-14T16:44:21.475Z,100533.97
2023-05-14T16:46:48.537Z,100527.72
2023-05-14T16:49:17.255Z,100537.97
2023-05-14T16:51:44.016Z,100529.13
2023-05-14T16:54:10.664Z,100533.97
2023-05-14T16:56:38.070Z,100532.56
2023-05-14T16:59:04.752Z,100517.81
2023-05-14T17:01:31.880Z,100526.75
2023-05-14T17:03:58.603Z,100527.47
2023-05-14T17:06:25.276Z,100525.78
2023-05-14T17:08:51.935Z,100525.47
2023-05-14T17:11:18.523Z,100521.53
2023-05-14T17:13:45.245Z,100524.34
2023-05-14T17:16:13.991Z,100519.50
2023-05-14T17:18:40.856Z,100523.78
2023-05-14T17:21:07.716Z,100521.97
2023-05-14T17:23:34.352Z,100512.47
2023-05-14T17:26:00.934Z,100527.16
2023-05-14T17:28:28.533Z,100516.69
2023-05-14T17:30:55.353Z,100512.22
2023-05-14T17:33:22.047Z,100522.31
2023-05-14T17:35:51.009Z,100512.88
2023-05-14T17:38:17.661Z,100513.34
2023-05-14T17:40:44.276Z,100518.50
2023-05-14T17:43:13.258Z,100524.47
2023-05-14T17:45:53.105Z,100515.41
2023-05-14T17:48:21.645Z,100522.06
2023-05-14T17:50:48.250Z,100520.47
2023-05-14T17:53:14.846Z,100516.91
2023-05-14T17:55:50.951Z,100514.28
2023-05-14T17:58:17.606Z,100515.72
2023-05-14T18:00:44.267Z,100527.03
2023-05-14T18:03:11.605Z,100522.47
2023-05-14T18:05:38.537Z,100524.88
2023-05-14T18:08:05.373Z,100526.44
2023-05-14T18:10:31.942Z,100527.84
2023-05-14T18:12:58.831Z,100526.84
2023-05-14T18:15:27.321Z,100533.88
2023-05-14T18:17:54.114Z,100531.38
2023-05-14T18:20:20.736Z,100529.84
2023-05-14T18:22:47.573Z,100535.44
2023-05-14T18:25:14.207Z,100535.56
2023-05-14T18:27:45.324Z,100538.53
2023-05-14T18:30:13.292Z,100539.31
2023-05-14T18:32:40.333Z,100537.19
2023-05-14T18:35:08.203Z,100532.41
2023-05-14T18:37:35.356Z,100528.78
2023-05-14T18:40:05.156Z,100533.00
2023-05-14T18:42:31.780Z,100526.75
2023-05-14T18:44:58.403Z,100530.13
2023-05-14T18:47:25.304Z,100531.16
2023-05-14T18:49:55.241Z,100531.66
2023-05-14T18:52:23.027Z,100528.25
2023-05-14T18:54:50.701Z,100537.53
2023-05-14T18:57:17.396Z,100538.75
2023-05-14T18:59:43.963Z,100535.31
2023-05-14T19:02:10.999Z,100540.06
2023-05-14T19:04:50.706Z,100544.88
2023-05-14T19:07:32.281Z,100538.53
2023-05-14T19:10:01.700Z,100546.44
2023-05-14T19:12:28.360Z,100543.59
2023-05-14T19:14:55.773Z,100539.13
2023-05-14T19:17:25.546Z,100541.75
2023-05-14T19:19:52.186Z,100541.38
2023-05-14T19:22:21.996Z,100556.56
2023-05-14T19:27:21.064Z,100553.16
2023-05-14T19:29:47.657Z,100551.00
2023-05-14T19:32:14.306Z,100551.63
2023-05-14T19:34:41.064Z,100553.53
2023-05-14T19:37:07.870Z,100550.16
2023-05-14T19:39:34.457Z,100543.44
2023-05-14T19:42:04.104Z,100536.81
2023-05-14T19:44:31.113Z,100532.91
2023-05-14T19:46:57.935Z,100530.81
2023-05-14T19:49:24.521Z,100532.75
2023-05-14T19:51:51.103Z,100527.94
2023-05-14T19:54:20.680Z,100525.41
2023-05-14T19:56:48.193Z,100535.06
2023-05-14T19:59:17.110Z,100530.75
2023-05-14T20:01:45.998Z,100521.34
2023-05-14T20:04:13.985Z,100520.47
2023-05-14T20:06:41.657Z,100520.72
2023-05-14T20:09:08.223Z,100523.63
2023-05-14T20:11:34.819Z,100522.47
2023-05-14T20:14:01.314Z,100524.84
2023-05-14T20:16:28.590Z,100522.59
2023-05-14T20:18:58.139Z,100520.22
2023-05-14T20:21:24.800Z,100517.66
2023-05-14T20:23:51.900Z,100517.22
2023-05-14T20:26:18.492Z,100509.97
2023-05-14T20:28:45.113Z,100519.88
2023-05-14T20:31:11.752Z,100514.63
2023-05-14T20:33:38.355Z,100517.63
2023-05-14T20:36:05.362Z,100511.00
2023-05-14T20:38:35.122Z,100510.16
2023-05-14T20:41:01.907Z,100513.66
2023-05-14T20:43:31.507Z,100504.06
2023-05-14T20:46:06.305Z,100503.16
2023-05-14T20:48:32.990Z,100503.41
2023-05-14T20:50:59.622Z,100499.53
2023-05-14T20:53:28.761Z,100498.34
2023-05-14T20:55:55.962Z,100501.00
2023-05-14T20:58:22.630Z,100492.97
2023-05-14T21:00:49.250Z,100495.88
2023-05-14T21:03:15.959Z,100496.84
2023-05-14T21:05:43.787Z,100495.38
2023-05-14T21:08:10.895Z,100494.84
2023-05-14T21:10:37.465Z,100486.78
2023-05-14T21:13:15.521Z,100487.44
2023-05-14T21:15:42.461Z,100480.84
2023-05-14T21:18:16.473Z,100478.59
2023-05-14T21:20:43.043Z,100481.91
2023-05-14T21:23:09.603Z,100482.97
2023-05-14T21:25:36.364Z,100476.25
2023-05-14T21:28:02.952Z,100485.13
2023-05-14T21:30:29.750Z,100472.25
2023-05-14T21:32:56.449Z,100475.50
2023-05-14T21:35:23.472Z,100471.31
2023-05-14T21:37:50.288Z,100479.34
2023-05-14T21:40:16.867Z,100477.44
2023-05-14T21:42:43.565Z,100485.28
2023-05-14T21:45:10.482Z,100473.03
2023-05-14T21:47:37.201Z,100467.16
2023-05-14T21:50:07.052Z,100463.72
2023-05-14T21:52:33.663Z,100468.28
2023-05-14T21:55:00.211Z,100462.22
2023-05-14T21:57:28.373Z,100459.44
2023-05-14T21:59:55.451Z,100457.03
2023-05-14T22:04:48.639Z,100458.22
2023-05-14T22:07:15.282Z,100452.91
2023-05-14T22:09:41.841Z,100445.84
2023-05-14T22:12:08.548Z,100448.53
2023-05-14T22:14:35.103Z,100441.09
2023-05-14T22:17:01.772Z,100450.59
2023-05-14T22:19:28.547Z,100448.19
2023-05-14T22:21:55.161Z,100450.38
2023-05-14T22:24:21.676Z,100454.22
2023-05-14T22:26:53.407Z,100452.00
2023-05-14T22:29:20.114Z,100449.88
2023-05-14T22:31:46.759Z,100447.88
2023-05-14T22:34:16.029Z,100447.09
2023-05-14T22:36:42.633Z,100451.44
2023-05-14T22:39:11.196Z,100442.56
2023-05-14T22:41:38.662Z,100443.31
2023-05-14T22:44:07.488Z,100445.91
2023-05-14T22:46:34.089Z,100431.19
2023-05-14T22:49:06.310Z,100439.28
2023-05-14T22:51:33.114Z,100435.41
2023-05-14T22:53:59.633Z,100442.78
2023-05-14T22:56:26.242Z,100432.59
2023-05-14T22:58:52.754Z,100432.81
2023-05-14T23:01:19.381Z,100435.47
2023-05-14T23:03:45.995Z,100441.50
2023-05-14T23:06:14.485Z,100432.72
2023-05-14T23:08:41.016Z,100423.09
2023-05-14T23:11:07.709Z,100414.16
2023-05-14T23:13:41.592Z,100411.53
2023-05-14T23:16:08.392Z,100414.16
2023-05-14T23:18:35.095Z,100411.00
2023-05-14T23:21:01.965Z,100409.88
2023-05-14T23:23:28.546Z,100412.19
2023-05-14T23:25:56.133Z,100404.00
2023-05-14T23:28:22.719Z,100400.34
2023-05-14T23:30:49.425Z,100404.28
2023-05-14T23:33:15.943Z,100401.03
2023-05-14T23:35:42.524Z,100400.13
2023-05-14T23:38:09.152Z,100401.22
2023-05-14T23:40:35.877Z,100396.91
2023-05-14T23:43:02.514Z,100397.69
2023-05-14T23:45:29.456Z,100402.38
2023-05-14T23:47:58.478Z,100389.50
2023-05-14T23:50:25.658Z,100388.53
2023-05-14T23:52:52.751Z,100385.84
2023-05-14T23:55:19.492Z,100388.72
2023-05-14T23:57:46.080Z,100380.63
